Time;durP1;ratioP1;P1;durP2;ratioP2;P2;SDS_P1;SDS_P2;PMS_P1;PMS_P2;Temp;Humidity;BMP_temperature;BMP_pressure;BME280_temperature;BME280_humidity;BME280_pressure;Samples;Min_cycle;Max_cycle;Signal;HPM_P1;HPM_P2
2021/06/06 00:01:37;;;;;;;14.77;10.48;;;;;;;15.61;93.93;99241.94;4975718;28;20026;-67
2021/06/06 00:04:04;;;;;;;15.80;9.93;;;;;;;15.53;94.02;99240.31;4974986;28;20534;-67
2021/06/06 00:06:33;;;;;;;19.85;10.55;;;;;;;15.47;93.91;99250.25;4975151;28;20516;-67
2021/06/06 00:09:00;;;;;;;;;;;;;;;15.48;94.42;99251.94;4973921;28;20400;-67
2021/06/06 00:11:29;;;;;;;16.65;9.25;;;;;;;15.48;93.74;99249.19;4974937;28;19914;-67
2021/06/06 00:13:56;;;;;;;18.03;10.13;;;;;;;15.39;94.51;99245.06;4975094;28;20023;-67
2021/06/06 00:16:26;;;;;;;16.98;10.15;;;;;;;15.39;94.79;99239.63;4974500;28;20030;-67
2021/06/06 00:18:51;;;;;;;;;;;;;;;15.39;94.40;99238.78;4975990;28;20539;-67
2021/06/06 00:21:17;;;;;;;15.10;9.90;;;;;;;15.31;94.41;99242.63;4975341;28;19914;-67
2021/06/06 00:23:43;;;;;;;16.90;9.60;;;;;;;15.39;94.87;99244.25;4974911;28;20477;-67
2021/06/06 00:26:10;;;;;;;15.23;9.93;;;;;;;15.42;94.27;99233.72;4974511;28;20030;-67
2021/06/06 00:28:36;;;;;;;14.52;9.75;;;;;;;15.34;94.33;99242.19;4975104;28;20023;-67
2021/06/06 00:31:05;;;;;;;13.60;9.23;;;;;;;15.40;94.75;99238.56;4975299;28;20031;-67
2021/06/06 00:33:31;;;;;;;15.80;9.70;;;;;;;15.45;94.57;99244.16;4975882;28;20643;-67
2021/06/06 00:35:57;;;;;;;14.27;8.95;;;;;;;15.31;93.93;99218.09;4985158;28;20042;-67
2021/06/06 00:38:23;;;;;;;14.23;9.90;;;;;;;15.48;93.91;99240.16;4957171;28;20027;-66
2021/06/06 00:40:48;;;;;;;14.60;9.40;;;;;;;15.36;93.62;99233.78;4974693;28;20480;-66
2021/06/06 00:43:14;;;;;;;15.85;9.77;;;;;;;15.40;94.24;99245.91;4974743;28;20057;-66
2021/06/06 00:45:40;;;;;;;15.73;10.60;;;;;;;15.30;94.28;99219.13;4974408;28;20038;-66
2021/06/06 00:48:06;;;;;;;15.07;9.93;;;;;;;15.34;93.87;99234.84;4974850;28;20026;-67
2021/06/06 00:50:36;;;;;;;14.02;9.20;;;;;;;15.38;93.68;99237.97;4974279;28;20031;-67
2021/06/06 00:53:09;;;;;;;13.07;8.93;;;;;;;15.39;93.88;99233.34;4974265;28;20019;-67
2021/06/06 00:55:36;;;;;;;15.18;9.38;;;;;;;15.25;93.69;99213.56;4961119;28;20022;-67
2021/06/06 00:58:07;;;;;;;16.20;9.77;;;;;;;15.21;93.76;99231.41;4974019;28;20038;-66
2021/06/06 01:00:37;;;;;;;17.73;9.40;;;;;;;15.28;93.65;99237.63;4974461;28;20022;-66
2021/06/06 01:03:03;;;;;;;13.77;10.27;;;;;;;15.34;93.61;99240.28;4973965;28;20023;-67
2021/06/06 01:05:47;;;;;;;14.35;10.07;;;;;;;15.29;93.90;99242.03;4974072;28;20027;-66
2021/06/06 01:08:18;;;;;;;14.65;10.07;;;;;;;15.23;93.78;99237.47;4973564;28;20042;-67
2021/06/06 01:10:45;;;;;;;19.08;11.38;;;;;;;15.22;93.92;99242.09;4974524;28;20080;-66
2021/06/06 01:13:19;;;;;;;15.27;10.40;;;;;;;15.25;94.07;99249.00;4974128;28;20037;-67
2021/06/06 01:15:50;;;;;;;16.10;10.15;;;;;;;15.30;93.90;99249.13;4973614;28;20026;-67
2021/06/06 01:18:25;;;;;;;14.50;9.38;;;;;;;15.34;93.60;99237.56;4973881;28;20109;-67
2021/06/06 01:21:08;;;;;;;15.70;9.30;;;;;;;15.35;93.18;99238.38;4976024;28;20070;-67
2021/06/06 01:23:44;;;;;;;13.77;9.85;;;;;;;15.39;93.19;99238.78;4973959;28;20030;-67
2021/06/06 01:26:32;;;;;;;14.15;9.07;;;;;;;15.40;93.72;99240.44;4968652;28;20034;-67
2021/06/06 01:29:01;;;;;;;13.95;8.82;;;;;;;15.42;92.66;99241.06;4965783;28;20035;-67
2021/06/06 01:31:28;;;;;;;16.60;9.10;;;;;;;15.37;93.14;99233.56;4973801;28;20035;-66
2021/06/06 01:33:58;;;;;;;13.02;9.75;;;;;;;15.25;92.93;99222.56;4973740;28;20027;-67
2021/06/06 01:36:31;;;;;;;14.20;9.57;;;;;;;15.45;92.52;99236.00;4972821;28;20378;-67
2021/06/06 01:39:00;;;;;;;13.23;9.55;;;;;;;15.27;92.75;99225.03;4972961;28;20133;-67
2021/06/06 01:41:35;;;;;;;15.73;10.25;;;;;;;15.31;93.21;99227.09;4973619;28;20042;-67
2021/06/06 01:44:03;;;;;;;13.38;9.27;;;;;;;15.25;93.07;99213.56;4973388;28;20034;-67
2021/06/06 01:46:35;;;;;;;13.30;9.65;;;;;;;15.32;93.24;99226.03;4973042;28;20058;-67
2021/06/06 01:49:05;;;;;;;15.27;9.90;;;;;;;15.37;93.21;99230.00;4966895;28;20023;-67
2021/06/06 01:51:34;;;;;;;17.33;10.40;;;;;;;15.40;92.90;99230.38;4973709;28;20499;-67
2021/06/06 01:57:07;;;;;;;13.95;9.27;;;;;;;15.27;92.29;99206.81;4972814;28;19921;-67
2021/06/06 01:59:38;;;;;;;15.38;9.27;;;;;;;15.31;92.33;99201.75;4973169;28;20035;-67
2021/06/06 02:02:04;;;;;;;15.25;10.02;;;;;;;15.48;92.25;99223.78;4973579;28;20105;-67
2021/06/06 02:04:30;;;;;;;16.48;10.48;;;;;;;15.41;92.24;99226.59;4973081;28;20480;-67
2021/06/06 02:07:02;;;;;;;19.05;11.18;;;;;;;15.31;92.17;99226.28;4972090;28;20093;-66
2021/06/06 02:09:30;;;;;;;16.17;10.48;;;;;;;15.27;92.47;99233.22;4973140;28;20477;-66
2021/06/06 02:12:00;;;;;;;16.60;10.77;;;;;;;15.24;92.70;99225.50;4973138;28;20400;-67
2021/06/06 02:14:32;;;;;;;18.02;11.50;;;;;;;15.28;92.65;99224.84;4972952;28;20516;-67
2021/06/06 02:17:00;;;;;;;19.55;10.77;;;;;;;15.33;91.84;99224.16;4955704;28;20112;-67
2021/06/06 02:19:31;;;;;;;18.92;11.15;;;;;;;15.35;92.72;99227.47;4972511;28;20508;-67
2021/06/06 02:21:59;;;;;;;20.48;11.90;;;;;;;15.27;91.56;99225.03;4973365;28;20023;-66
2021/06/06 02:24:25;;;;;;;16.90;11.03;;;;;;;15.31;92.39;99224.38;4971408;28;20035;-66
2021/06/06 02:26:58;;;;;;;20.15;12.00;;;;;;;15.30;92.55;99213.69;4972919;28;20037;-67
2021/06/06 02:29:35;;;;;;;22.65;12.55;;;;;;;15.21;92.72;99231.41;4972619;28;20030;-66
2021/06/06 02:32:31;;;;;;;20.17;12.35;;;;;;;15.17;92.94;99228.28;4973342;28;20078;-66
2021/06/06 02:35:13;;;;;;;24.48;12.70;;;;;;;15.22;92.74;99220.28;4951640;28;20050;-67
2021/06/06 02:37:54;;;;;;;24.13;12.98;;;;;;;15.09;93.06;99229.41;4957665;28;20039;-66
2021/06/06 02:40:34;;;;;;;21.58;12.70;;;;;;;15.13;93.41;99227.06;4961810;28;20661;-67
2021/06/06 02:43:23;;;;;;;22.75;13.82;;;;;;;15.03;94.05;99219.38;4972503;28;20507;-66
2021/06/06 02:45:52;;;;;;;23.90;13.10;;;;;;;15.08;94.05;99221.44;4972074;28;20485;-66
2021/06/06 02:48:23;;;;;;;23.33;13.50;;;;;;;15.10;94.28;99225.63;4971836;28;20593;-66
2021/06/06 02:50:49;;;;;;;22.27;14.80;;;;;;;15.02;94.13;99214.16;4973089;28;20054;-66
2021/06/06 02:53:27;;;;;;;31.38;16.95;;;;;;;15.19;93.83;99211.69;4972436;28;20031;-67
2021/06/06 02:55:56;;;;;;;29.38;15.98;;;;;;;15.13;94.10;99208.81;4971016;28;20561;-66
2021/06/06 02:58:28;;;;;;;33.33;18.05;;;;;;;15.05;94.04;99205.53;4972459;28;20034;-66
2021/06/06 03:00:57;;;;;;;37.72;17.38;;;;;;;15.06;94.87;99215.38;4973157;28;20054;-66
2021/06/06 03:03:28;;;;;;;33.47;18.33;;;;;;;15.09;94.22;99217.66;4972395;28;20023;-66
2021/06/06 03:05:56;;;;;;;34.92;17.95;;;;;;;15.12;94.20;99207.16;4954998;28;20031;-66
2021/06/06 03:08:23;;;;;;;33.47;17.15;;;;;;;15.10;94.37;99214.72;4973303;28;20031;-66
2021/06/06 03:10:50;;;;;;;33.05;18.00;;;;;;;15.02;94.12;99212.28;4955635;28;20397;-66
2021/06/06 03:13:18;;;;;;;30.10;16.80;;;;;;;15.05;94.74;99211.81;4972512;28;20111;-67
2021/06/06 03:15:47;;;;;;;33.17;16.60;;;;;;;15.01;94.57;99212.47;4955700;28;20093;-66
2021/06/06 03:18:13;;;;;;;31.33;18.13;;;;;;;14.87;94.92;99211.75;4968616;28;20102;-66
2021/06/06 03:20:45;;;;;;;32.63;17.73;;;;;;;14.90;95.29;99211.31;4967197;28;20121;-66
2021/06/06 03:23:14;;;;;;;32.08;17.92;;;;;;;14.86;95.74;99219.09;4971937;28;20026;-67
2021/06/06 03:25:51;;;;;;;36.25;19.17;;;;;;;14.75;96.23;99202.63;4971899;28;20232;-66
2021/06/06 03:28:19;;;;;;;31.45;17.55;;;;;;;14.88;96.32;99213.41;4969381;28;20035;-66
2021/06/06 03:30:46;;;;;;;38.78;19.13;;;;;;;14.85;96.55;99208.41;4961423;28;20054;-66
2021/06/06 03:33:18;;;;;;;32.60;18.08;;;;;;;14.87;96.83;99220.75;4976041;28;20034;-67
2021/06/06 03:35:43;;;;;;;31.35;16.98;;;;;;;14.85;96.88;99217.41;4975472;28;20027;-67
2021/06/06 03:38:11;;;;;;;35.88;17.38;;;;;;;14.83;96.96;99219.56;4975788;28;20675;-67
2021/06/06 03:40:41;;;;;;;32.53;16.35;;;;;;;14.77;96.52;99203.25;4958055;28;20029;-67
2021/06/06 03:43:09;;;;;;;;;;;;;;;14.80;97.05;99217.28;4955132;28;20101;-66
2021/06/06 03:45:34;;;;;;;27.50;16.10;;;;;;;14.83;97.36;99218.72;4973688;28;19921;-67
2021/06/06 03:48:00;;;;;;;26.08;15.70;;;;;;;14.86;97.27;99218.28;4975095;28;20042;-66
2021/06/06 03:50:28;;;;;;;28.23;16.20;;;;;;;14.75;96.58;99221.69;4975463;28;20027;-67
2021/06/06 03:52:53;;;;;;;26.48;15.90;;;;;;;14.78;96.75;99211.19;4958381;28;20089;-67
2021/06/06 03:55:20;;;;;;;24.92;15.00;;;;;;;14.81;97.07;99216.19;4975874;28;20019;-67
2021/06/06 03:57:46;;;;;;;26.63;15.65;;;;;;;14.67;97.23;99190.09;4957283;28;20027;-67
2021/06/06 04:00:40;;;;;;;24.67;14.10;;;;;;;14.85;97.06;99211.97;4975781;28;20382;-66
2021/06/06 04:03:06;;;;;;;21.67;14.07;;;;;;;14.85;97.00;99203.78;4967437;28;20662;-66
2021/06/06 04:05:32;;;;;;;19.63;13.20;;;;;;;14.89;97.00;99209.66;4974956;28;20047;-66
2021/06/06 04:07:57;;;;;;;23.10;14.15;;;;;;;14.90;96.58;99211.31;4975053;28;20085;-66
2021/06/06 04:10:24;;;;;;;21.85;13.18;;;;;;;14.85;96.67;99211.13;4975530;28;20377;-66
2021/06/06 04:12:49;;;;;;;21.55;13.45;;;;;;;14.91;96.57;99213.00;4975273;28;20042;-66
2021/06/06 04:15:16;;;;;;;19.77;13.15;;;;;;;14.90;96.38;99211.31;4975209;28;20023;-66
2021/06/06 04:17:41;;;;;;;19.73;11.80;;;;;;;14.81;95.95;99208.03;4975229;28;20045;-66
2021/06/06 04:20:08;;;;;;;20.45;11.95;;;;;;;14.87;96.49;99204.41;4975675;28;20043;-66
2021/06/06 04:22:34;;;;;;;17.98;11.90;;;;;;;14.80;96.50;99197.34;4974748;28;20031;-67
2021/06/06 04:24:59;;;;;;;17.08;11.30;;;;;;;14.88;96.34;99205.25;4975071;28;20055;-67
2021/06/06 04:27:24;;;;;;;16.58;10.05;;;;;;;14.89;95.16;99199.59;4975569;28;20139;-66
2021/06/06 04:29:50;;;;;;;18.30;9.75;;;;;;;14.83;95.16;99189.59;4976855;28;20038;-67
2021/06/06 04:32:17;;;;;;;22.95;9.93;;;;;;;14.81;95.55;99188.13;4976779;28;20110;-67
2021/06/06 04:34:44;;;;;;;13.93;10.13;;;;;;;14.93;95.62;99205.41;4970528;28;20054;-67
2021/06/06 04:37:12;;;;;;;13.50;9.95;;;;;;;14.99;95.45;99188.19;4975004;28;20035;-67
2021/06/06 04:39:39;;;;;;;16.33;10.02;;;;;;;14.95;95.52;99189.69;4974506;28;20026;-67
2021/06/06 04:42:09;;;;;;;17.77;10.77;;;;;;;14.93;95.25;99191.78;4973926;28;20047;-67
2021/06/06 04:44:34;;;;;;;16.33;10.18;;;;;;;14.94;94.96;99193.47;4974299;28;20026;-67
2021/06/06 04:46:59;;;;;;;18.17;10.32;;;;;;;14.99;95.35;99199.09;4974581;28;20081;-67
2021/06/06 04:49:25;;;;;;;16.35;10.15;;;;;;;15.03;95.37;99194.84;4974539;28;20041;-67
2021/06/06 04:51:51;;;;;;;18.30;10.73;;;;;;;14.98;94.90;99202.84;4974977;28;20027;-67
2021/06/06 04:54:16;;;;;;;18.60;10.43;;;;;;;14.95;95.15;99200.59;4972994;28;20358;-67
2021/06/06 04:56:42;;;;;;;15.63;9.80;;;;;;;14.92;95.47;99192.84;4968213;28;20117;-67
2021/06/06 04:59:07;;;;;;;16.65;9.43;;;;;;;14.98;94.91;99196.59;4962437;28;20049;-67
2021/06/06 05:01:32;;;;;;;16.70;9.15;;;;;;;14.88;95.10;99178.00;4974408;28;20078;-67
2021/06/06 05:03:58;;;;;;;14.70;9.10;;;;;;;14.96;95.49;99196.81;4973459;28;20035;-67
2021/06/06 05:06:24;;;;;;;17.38;9.48;;;;;;;14.93;95.24;99199.97;4974053;28;20524;-67
2021/06/06 05:08:49;;;;;;;14.85;9.30;;;;;;;14.97;94.99;99195.75;4973998;28;20030;-67
2021/06/06 05:11:14;;;;;;;15.15;8.85;;;;;;;14.95;94.92;99200.59;4973892;28;20393;-67
2021/06/06 05:13:40;;;;;;;16.17;9.48;;;;;;;14.92;95.29;99206.47;4973573;28;20125;-67
2021/06/06 05:16:06;;;;;;;19.08;10.32;;;;;;;14.95;95.23;99189.69;4974038;28;20026;-67
2021/06/06 05:18:32;;;;;;;21.02;10.55;;;;;;;14.95;95.54;99203.31;4974214;28;20110;-67
2021/06/06 05:20:57;;;;;;;19.27;10.95;;;;;;;14.96;95.55;99207.72;4974280;28;20055;-67
2021/06/06 05:23:25;;;;;;;18.30;10.68;;;;;;;14.90;95.37;99201.25;4971487;28;20039;-69
2021/06/06 05:25:51;;;;;;;17.67;9.75;;;;;;;14.87;95.36;99201.69;4976008;28;20125;-67
2021/06/06 05:28:20;;;;;;;20.08;10.77;;;;;;;14.94;96.10;99203.53;4973823;28;20058;-67
2021/06/06 05:30:46;;;;;;;15.27;9.57;;;;;;;14.90;95.69;99212.13;4978120;28;20030;-67
2021/06/06 05:33:12;;;;;;;20.48;10.73;;;;;;;14.98;96.27;99205.59;4980199;28;20396;-66
2021/06/06 05:35:38;;;;;;;20.48;9.95;;;;;;;14.93;95.90;99202.69;4986852;28;20050;-67
2021/06/06 05:38:05;;;;;;;18.20;10.15;;;;;;;14.92;96.08;99211.94;4977919;28;20027;-68
2021/06/06 05:40:33;;;;;;;18.95;11.05;;;;;;;14.90;96.05;99214.84;4971846;28;20034;-68
2021/06/06 05:42:59;;;;;;;22.23;11.93;;;;;;;14.85;95.84;99213.84;4974242;28;20025;-68
2021/06/06 05:45:25;;;;;;;20.00;11.65;;;;;;;14.79;96.26;99206.59;4970472;28;20038;-73
2021/06/06 05:47:52;;;;;;;23.30;11.60;;;;;;;14.80;96.75;99211.81;4958926;28;20048;-73
2021/06/06 05:50:21;;;;;;;21.45;12.40;;;;;;;14.76;96.81;99216.03;4962648;28;22036;-76
2021/06/06 05:52:47;;;;;;;;;;;;;;;14.69;96.80;99216.06;4993239;28;20065;-75
2021/06/06 05:55:13;;;;;;;19.95;11.63;;;;;;;14.74;97.41;99211.84;4991207;28;20384;-76
2021/06/06 05:57:39;;;;;;;23.13;12.23;;;;;;;14.82;97.72;99217.03;4974471;28;20053;-74
2021/06/06 06:00:07;;;;;;;24.25;12.60;;;;;;;14.87;96.85;99209.03;4975390;28;20485;-73
2021/06/06 06:02:35;;;;;;;29.40;12.57;;;;;;;14.74;97.25;99182.72;4978528;28;20488;-73
2021/06/06 06:05:00;;;;;;;22.73;12.60;;;;;;;14.77;97.29;99189.63;4968175;28;20031;-75
2021/06/06 06:07:26;;;;;;;26.08;13.50;;;;;;;14.75;96.99;99189.84;4973544;28;20037;-75
2021/06/06 06:09:52;;;;;;;26.77;14.23;;;;;;;14.95;96.98;99214.22;4975699;28;20029;-72
2021/06/06 06:12:17;;;;;;;26.75;13.65;;;;;;;14.84;96.91;99182.25;4964242;28;20068;-72
2021/06/06 06:14:42;;;;;;;28.30;14.02;;;;;;;15.03;96.56;99213.94;4975063;28;20035;-73
2021/06/06 06:17:08;;;;;;;27.15;13.85;;;;;;;15.09;96.34;99207.59;4977009;28;20031;-69
2021/06/06 06:19:33;;;;;;;25.58;13.60;;;;;;;15.10;96.38;99198.38;4958176;28;20047;-68
2021/06/06 06:21:59;;;;;;;26.95;13.70;;;;;;;14.93;96.62;99191.78;4983456;28;20034;-68
2021/06/06 06:24:24;;;;;;;24.35;13.52;;;;;;;15.05;96.37;99211.81;4974347;28;20031;-69
2021/06/06 06:26:49;;;;;;;29.05;14.73;;;;;;;15.04;96.67;99204.72;4957464;28;20023;-73
2021/06/06 06:29:15;;;;;;;27.63;14.27;;;;;;;15.05;96.98;99221.88;4982621;28;20472;-70
2021/06/06 06:31:41;;;;;;;29.20;14.65;;;;;;;14.93;96.86;99218.22;4974315;28;20108;-69
2021/06/06 06:34:07;;;;;;;26.70;13.27;;;;;;;14.90;97.22;99198.50;4972891;28;20030;-71
2021/06/06 06:36:32;;;;;;;23.60;12.52;;;;;;;15.03;96.90;99218.56;4981451;28;20033;-77
2021/06/06 06:38:58;;;;;;;24.20;12.90;;;;;;;14.98;97.02;99211.03;4971362;28;20022;-74
2021/06/06 06:41:27;;;;;;;25.85;13.13;;;;;;;15.03;96.92;99203.03;4964274;28;20066;-74
2021/06/06 06:43:53;;;;;;;25.05;12.45;;;;;;;15.06;97.00;99218.09;4970341;28;20469;-70
2021/06/06 06:46:19;;;;;;;23.60;13.05;;;;;;;15.01;97.60;99204.31;4967130;28;20497;-72
2021/06/06 06:48:46;;;;;;;27.85;13.38;;;;;;;15.07;97.15;99203.44;4972820;28;20023;-71
2021/06/06 06:51:11;;;;;;;25.38;13.18;;;;;;;15.03;97.08;99203.03;4978604;28;20030;-72
2021/06/06 06:53:36;;;;;;;23.55;13.18;;;;;;;15.12;96.95;99212.59;4972864;28;20026;-71
2021/06/06 06:56:03;;;;;;;25.85;12.55;;;;;;;15.13;96.77;99203.38;4985892;28;20110;-73
2021/06/06 06:58:28;;;;;;;21.70;11.80;;;;;;;15.27;96.28;99200.50;4976590;28;20403;-73
2021/06/06 07:00:55;;;;;;;23.58;12.35;;;;;;;15.43;96.07;99224.50;4973277;28;20102;-72
2021/06/06 07:03:29;;;;;;;24.92;11.63;;;;;;;15.40;95.45;99213.19;4981789;28;20061;-74
2021/06/06 07:05:56;;;;;;;21.45;12.05;;;;;;;15.48;95.17;99226.53;4976761;28;20031;-77
2021/06/06 07:08:26;;;;;;;20.50;11.50;;;;;;;15.33;95.10;99205.09;4966170;28;20103;-75
2021/06/06 07:10:52;;;;;;;22.80;11.75;;;;;;;15.45;95.55;99225.09;4970136;28;20054;-71
2021/06/06 07:13:18;;;;;;;24.67;12.00;;;;;;;15.46;95.69;99223.22;4962411;28;20033;-73
2021/06/06 07:15:44;;;;;;;26.45;12.85;;;;;;;15.43;95.00;99229.09;4977388;28;20506;-73
2021/06/06 07:18:14;;;;;;;24.60;12.95;;;;;;;15.45;95.39;99227.81;4986438;28;20117;-74
2021/06/06 07:20:41;;;;;;;26.25;12.32;;;;;;;15.43;94.83;99205.41;4992108;28;20062;-73
2021/06/06 07:23:10;;;;;;;25.25;12.80;;;;;;;15.60;95.12;99235.66;4987359;28;20034;-73
2021/06/06 07:25:36;;;;;;;28.27;12.93;;;;;;;15.56;94.64;99218.91;4961561;28;20081;-80
2021/06/06 07:28:04;;;;;;;25.67;13.65;;;;;;;15.47;94.23;99209.34;4969573;28;20040;-80
2021/06/06 07:30:41;;;;;;;27.55;12.90;;;;;;;15.65;94.71;99237.69;4965933;28;20026;-73
2021/06/06 07:33:08;;;;;;;29.58;14.43;;;;;;;15.67;94.76;99236.41;4966541;28;20023;-72
2021/06/06 07:35:34;;;;;;;27.95;14.10;;;;;;;15.68;94.97;99231.78;4976892;28;20034;-75
2021/06/06 07:38:01;;;;;;;34.17;14.48;;;;;;;15.59;94.56;99234.00;4967039;28;20026;-77
2021/06/06 07:40:30;;;;;;;28.27;14.55;;;;;;;15.70;95.08;99232.44;4966050;28;20027;-72
2021/06/06 07:42:55;;;;;;;;;;;;;;;15.71;94.81;99237.66;4976815;28;20035;-73
2021/06/06 07:45:22;;;;;;;31.33;15.93;;;;;;;15.76;94.45;99237.81;4983518;28;19918;-74
2021/06/06 07:47:48;;;;;;;39.58;17.98;;;;;;;15.80;94.52;99220.97;4975015;28;20023;-71
2021/06/06 07:50:18;;;;;;;40.17;19.35;;;;;;;15.86;94.35;99229.09;4976813;28;20030;-73
2021/06/06 07:52:43;;;;;;;36.13;18.63;;;;;;;15.98;93.96;99232.75;4958793;28;20030;-72
2021/06/06 07:55:11;;;;;;;40.90;19.58;;;;;;;15.97;93.69;99231.06;4978141;28;20515;-74
2021/06/06 07:57:37;;;;;;;41.75;19.58;;;;;;;16.09;93.42;99227.59;4974648;28;20117;-73
2021/06/06 08:00:06;;;;;;;45.85;20.40;;;;;;;16.06;93.21;99220.69;4976191;28;20090;-74
2021/06/06 08:02:31;;;;;;;40.40;20.03;;;;;;;16.09;93.32;99227.59;4983698;28;20116;-73
2021/06/06 08:04:57;;;;;;;45.65;21.30;;;;;;;16.09;93.28;99222.13;4990561;28;20022;-70
2021/06/06 08:07:23;;;;;;;54.78;24.38;;;;;;;16.05;92.73;99212.72;4994220;28;20022;-72
2021/06/06 08:09:48;;;;;;;50.60;24.10;;;;;;;16.13;92.94;99220.59;4976342;28;20027;-71
2021/06/06 08:12:13;;;;;;;54.05;24.98;;;;;;;16.18;92.25;99234.38;4975559;28;20085;-71
2021/06/06 08:14:39;;;;;;;53.30;25.50;;;;;;;16.20;92.38;99229.53;4981103;28;20050;-72
2021/06/06 08:17:04;;;;;;;59.38;26.75;;;;;;;16.07;92.74;99225.06;4983660;28;20027;-72
2021/06/06 08:19:29;;;;;;;55.63;26.67;;;;;;;16.20;92.92;99229.53;4977872;28;20523;-72
2021/06/06 08:21:56;;;;;;;62.92;28.05;;;;;;;16.13;93.18;99234.25;4977689;28;20026;-74
2021/06/06 08:24:21;;;;;;;66.85;28.95;;;;;;;16.15;93.16;99232.13;4979357;28;20035;-73
2021/06/06 08:26:47;;;;;;;62.60;28.88;;;;;;;16.36;92.45;99233.53;4987542;28;20093;-71
2021/06/06 08:29:13;;;;;;;63.30;29.20;;;;;;;16.55;91.80;99228.84;4978064;28;20065;-76
2021/06/06 08:31:40;;;;;;;58.00;28.83;;;;;;;16.55;91.11;99231.59;4978658;28;20057;-67
2021/06/06 08:34:07;;;;;;;59.55;30.63;;;;;;;16.49;91.07;99221.59;4981433;28;20579;-74
2021/06/06 08:36:45;;;;;;;63.38;31.73;;;;;;;16.53;91.00;99215.44;4974325;28;20030;-76
2021/06/06 08:39:14;;;;;;;66.55;32.28;;;;;;;16.58;91.14;99220.19;4962055;28;20049;-76
2021/06/06 08:42:00;;;;;;;71.30;33.28;;;;;;;16.55;90.59;99231.59;4983068;28;20110;-74
2021/06/06 08:44:36;;;;;;;65.63;32.85;;;;;;;16.59;90.49;99227.34;4973073;28;20031;-76
2021/06/06 08:47:09;;;;;;;69.63;32.75;;;;;;;16.53;91.02;99211.84;4976433;28;20027;-75
2021/06/06 08:49:51;;;;;;;66.50;32.75;;;;;;;16.67;90.28;99209.78;4968503;28;20061;-77
2021/06/06 08:52:49;;;;;;;70.70;33.92;;;;;;;16.86;89.77;99234.09;4982367;28;20053;-76
2021/06/06 08:55:45;;;;;;;61.25;30.70;;;;;;;17.08;88.88;99226.19;4975134;28;20057;-76
2021/06/06 08:58:29;;;;;;;62.50;31.60;;;;;;;17.06;88.66;99211.09;4977407;28;20037;-75
2021/06/06 09:01:10;;;;;;;61.33;32.03;;;;;;;16.84;88.25;99211.63;4981850;28;20027;-75
2021/06/06 09:03:35;;;;;;;56.72;30.52;;;;;;;16.82;88.66;99211.06;4960901;28;20026;-75
2021/06/06 09:06:07;;;;;;;63.10;32.13;;;;;;;16.80;89.27;99229.56;4974372;28;20361;-74
2021/06/06 09:08:35;;;;;;;56.67;30.73;;;;;;;16.68;89.27;99227.84;4980675;28;20038;-70
2021/06/06 09:11:07;;;;;;;61.10;30.48;;;;;;;16.64;90.50;99233.78;4973413;28;20061;-69
2021/06/06 09:13:32;;;;;;;63.47;31.38;;;;;;;16.69;90.74;99226.75;4974537;28;20054;-68
2021/06/06 09:16:23;;;;;;;59.20;30.35;;;;;;;16.63;91.01;99229.34;4974271;28;20389;-68
2021/06/06 09:19:05;;;;;;;55.38;29.23;;;;;;;16.70;90.24;99222.97;4967946;28;20034;-68
2021/06/06 09:21:31;;;;;;;53.92;30.13;;;;;;;16.75;90.44;99232.13;4974428;28;20035;-71
2021/06/06 09:24:32;;;;;;;51.70;27.58;;;;;;;16.66;90.81;99233.53;4973697;28;20035;-71
2021/06/06 09:27:09;;;;;;;49.78;26.88;;;;;;;16.42;90.83;99211.56;4972690;28;20058;-70
2021/06/06 09:29:34;;;;;;;57.13;29.38;;;;;;;16.62;90.94;99243.25;4973276;28;20102;-71
2021/06/06 09:32:11;;;;;;;53.33;29.13;;;;;;;16.50;90.92;99240.47;4973008;28;20122;-70
2021/06/06 09:34:36;;;;;;;51.00;28.45;;;;;;;16.43;91.34;99207.81;4973666;28;20015;-71
2021/06/06 09:37:04;;;;;;;50.63;28.25;;;;;;;16.56;91.32;99239.56;4973644;28;20365;-71
2021/06/06 09:39:36;;;;;;;49.75;28.48;;;;;;;16.60;91.28;99231.72;4973345;28;20507;-71
2021/06/06 09:42:18;;;;;;;53.50;28.13;;;;;;;16.56;91.53;99246.94;4973239;28;20062;-70
2021/06/06 09:44:43;;;;;;;47.65;26.73;;;;;;;16.58;90.46;99250.25;4973505;28;20035;-71
2021/06/06 09:47:08;;;;;;;54.28;28.98;;;;;;;16.68;90.05;99252.41;4973248;28;20392;-71
2021/06/06 09:49:42;;;;;;;49.92;28.70;;;;;;;16.75;90.29;99243.06;4973553;28;20030;-70
2021/06/06 09:52:20;;;;;;;50.40;28.30;;;;;;;16.76;90.11;99244.72;4971235;28;20033;-71
2021/06/06 09:54:58;;;;;;;51.42;28.88;;;;;;;16.80;90.24;99237.78;4969493;28;20038;-70
2021/06/06 09:57:33;;;;;;;52.15;29.00;;;;;;;16.74;90.73;99244.16;4968388;28;20065;-71
2021/06/06 10:00:25;;;;;;;54.22;28.38;;;;;;;16.74;90.35;99246.88;4970404;28;20031;-70
2021/06/06 10:03:00;;;;;;;52.13;27.70;;;;;;;16.85;90.44;99248.00;4964064;28;20500;-69
2021/06/06 10:05:30;;;;;;;51.40;27.30;;;;;;;16.83;90.51;99245.50;4970528;28;20038;-70
2021/06/06 10:07:55;;;;;;;48.75;27.98;;;;;;;16.95;90.54;99240.06;4972573;28;20030;-70
2021/06/06 10:10:32;;;;;;;51.95;28.35;;;;;;;16.72;90.31;99210.75;4970857;28;20041;-70
2021/06/06 10:13:01;;;;;;;57.78;30.52;;;;;;;16.97;89.88;99254.31;4970021;28;20039;-70
2021/06/06 10:15:46;;;;;;;54.10;29.90;;;;;;;17.14;89.46;99246.28;4970430;28;20125;-71
2021/06/06 10:18:20;;;;;;;52.53;29.10;;;;;;;17.18;89.03;99224.75;4969866;28;20030;-70
2021/06/06 10:20:54;;;;;;;53.90;31.10;;;;;;;17.24;89.25;99243.81;4966461;28;20069;-71
2021/06/06 10:23:28;;;;;;;57.78;29.48;;;;;;;17.48;89.35;99252.03;4974895;28;20038;-71
2021/06/06 10:26:12;;;;;;;54.25;29.55;;;;;;;17.66;88.45;99257.38;4974707;28;20035;-71
2021/06/06 10:28:41;;;;;;;51.90;29.42;;;;;;;17.81;87.72;99245.97;4973568;28;20514;-70
2021/06/06 10:31:12;;;;;;;55.78;30.10;;;;;;;17.78;86.28;99240.13;4973778;28;20030;-70
2021/06/06 10:33:50;;;;;;;53.50;30.27;;;;;;;17.64;87.29;99245.84;4976006;28;20042;-70
2021/06/06 10:36:19;;;;;;;55.15;29.95;;;;;;;17.67;88.02;99250.81;4976434;28;20043;-70
2021/06/06 10:38:46;;;;;;;52.63;28.88;;;;;;;17.73;86.74;99246.28;4974626;28;20050;-71
2021/06/06 10:41:36;;;;;;;56.50;29.92;;;;;;;17.68;87.11;99252.50;4969827;28;20034;-72
2021/06/06 10:44:17;;;;;;;50.20;28.60;;;;;;;17.79;86.27;99255.44;4957297;28;20034;-71
2021/06/06 10:46:47;;;;;;;60.25;30.08;;;;;;;17.73;87.10;99243.56;4964229;28;20113;-72
2021/06/06 10:49:31;;;;;;;51.38;28.40;;;;;;;17.89;87.13;99252.97;4970554;28;20030;-72
2021/06/06 10:52:05;;;;;;;54.67;28.80;;;;;;;17.71;86.43;99249.28;4952681;28;20027;-71
2021/06/06 10:54:32;;;;;;;56.72;30.35;;;;;;;17.69;86.70;99243.22;4969587;28;20047;-71
2021/06/06 10:57:20;;;;;;;51.20;29.35;;;;;;;17.54;87.32;99256.53;4969288;28;20126;-70
2021/06/06 10:59:50;;;;;;;55.40;30.75;;;;;;;17.44;88.30;99246.19;4966623;28;20121;-71
2021/06/06 11:02:29;;;;;;;58.30;32.28;;;;;;;17.48;88.22;99247.38;4970575;28;20030;-71
2021/06/06 11:04:57;;;;;;;52.70;29.80;;;;;;;17.39;88.37;99232.38;4965974;28;20192;-72
2021/06/06 11:07:34;;;;;;;55.20;30.75;;;;;;;17.40;88.07;99234.06;4969796;28;20081;-73
2021/06/06 11:10:27;;;;;;;59.00;31.23;;;;;;;17.39;88.37;99226.09;4968713;28;20701;-72
2021/06/06 11:12:55;;;;;;;58.28;29.95;;;;;;;17.77;88.45;99246.66;4969937;28;20038;-72
2021/06/06 11:15:20;;;;;;;55.95;30.13;;;;;;;17.77;88.11;99241.19;4969592;28;20408;-72
2021/06/06 11:17:46;;;;;;;57.65;30.60;;;;;;;17.72;87.92;99229.06;4970637;28;20042;-71
2021/06/06 11:20:31;;;;;;;54.92;30.17;;;;;;;17.85;86.93;99238.13;4970573;28;20094;-72
2021/06/06 11:22:58;;;;;;;57.88;31.50;;;;;;;17.81;87.62;99229.53;4969079;28;20085;-71
2021/06/06 11:25:48;;;;;;;57.33;30.95;;;;;;;17.69;87.52;99210.38;4969359;28;20093;-72
2021/06/06 11:28:23;;;;;;;55.00;30.10;;;;;;;17.83;87.28;99235.63;4969437;28;20082;-71
2021/06/06 11:30:50;;;;;;;51.30;29.02;;;;;;;17.79;87.68;99230.81;4969801;28;20035;-71
2021/06/06 11:33:33;;;;;;;53.15;30.42;;;;;;;17.80;88.00;99224.31;4968774;28;20488;-71
2021/06/06 11:35:58;;;;;;;51.10;27.83;;;;;;;17.93;86.80;99218.59;4969016;28;20066;-70